METAR AND TAF INFORMATION
METAR FOR UATE
ADDS - METARS form results

(2125 UTC 26 March 2019)
Data provider http://aviationweather.gov/metar/data/
 
METAR text: UATE 262100Z 06004MPS CAVOK 06/01 Q1017 R12/0///70 NOSIG RMK QFE761/1015
Conditions at: UATE (AKTAU KAZAKHSTAN, KZ) observed 2100 UTC 26 March 2019
Temperature: 6.0°C (43°F)
Dewpoint: 1.0°C (34°F) [RH = 70%]
Pressure (altimeter): 30.03 inches Hg (1017.0 mb)
Winds: from the ENE (60 degrees) at 9 MPH (8 knots; 4.1 m/s)
Visibility: 6 or more miles (10+ km)
Ceiling: ceiling and visibility are OK
Clouds: unknown
Weather: no significant weather observed at this time

METAR text: UATE 262030Z 07005MPS CAVOK 06/01 Q1017 R12/0///70 NOSIG RMK QFE761/1015
Conditions at: UATE (AKTAU KAZAKHSTAN, KZ) observed 2030 UTC 26 March 2019
Temperature: 6.0°C (43°F)
Dewpoint: 1.0°C (34°F) [RH = 70%]
Pressure (altimeter): 30.03 inches Hg (1017.0 mb)
Winds: from the ENE (70 degrees) at 12 MPH (10 knots; 5.1 m/s)
Visibility: 6 or more miles (10+ km)
Ceiling: ceiling and visibility are OK
Clouds: unknown
Weather: no significant weather observed at this time

Forecast for: UATE (AKTAU KAZAKHSTAN, KZ)
Text: TAF UATE 261702Z 2618/2718 09005MPS 9999 SCT033 TX10/2710Z TN04/2702Z
Forecast period: 1800 UTC 26 March 2019 to 1800 UTC 27 March 2019
Forecast type: FROM: standard forecast or significant change
Winds: from the E (90 degrees) at 12 MPH (10 knots; 5.1 m/s)
Visibility: 6 or more miles 10+ km)
Ceiling: at least 12,000 feet AGL
Clouds: scattered clouds at 3300 feet AGL
Weather: no significant weather forecast for this period

 AIRPORT MAP

 RUNWAY INFORMATION

 AIRPORT FREQUENCIES
Type A/G Name RDO Frequency 895.1 MHZ
Type APP Name APP Frequency 124.2 MHZ
Type TWR Name TWR Frequency 120.7 MHZ

 AIRPORT NEAR NAVIGATION AIDS
Type VOR-DME Name Aktau Frequency 113300 KHZ
Type NDB Name Aktau Frequency 670 KHZ
Type NDB Name Aktau Frequency 670 KHZ



2018 Air Astana Virtual Airline